Time,TemperatureF,DewpointF,PressureIn,WindDirection,WindDirectionDegrees,WindSpeedMPH,WindSpeedGustMPH,Humidity,HourlyPrecipIn,Conditions,Clouds,dailyrainin,SoftwareType,DateUTC
2013-01-14 00:04:00,39.5,39.2,29.99,SE,145,0.0,2.0,99,0.00,,,0.00,Wunderground v.1.15,2013-01-14 05:04:00,
2013-01-14 00:09:00,39.5,39.2,29.99,SE,145,0.0,2.0,99,0.00,,,0.00,Wunderground v.1.15,2013-01-14 05:09:00,
2013-01-14 00:15:00,39.5,39.2,29.99,SE,145,0.0,2.0,99,0.00,,,0.00,Wunderground v.1.15,2013-01-14 05:15:00,
2013-01-14 00:20:00,39.4,39.1,29.98,SE,145,0.0,2.0,99,0.00,,,0.00,Wunderground v.1.15,2013-01-14 05:20:00,
2013-01-14 00:25:00,39.4,39.1,29.99,SE,145,0.0,2.0,99,0.00,,,0.00,Wunderground v.1.15,2013-01-14 05:25:00,
2013-01-14 00:30:00,39.3,39.0,29.99,SE,145,0.0,2.0,99,0.00,,,0.00,Wunderground v.1.15,2013-01-14 05:30:00,
2013-01-14 00:40:00,39.3,39.0,29.99,SSE,155,0.0,2.0,99,0.00,,,0.00,Wunderground v.1.15,2013-01-14 05:40:00,
2013-01-14 00:44:00,39.4,39.1,29.98,SSE,155,0.0,2.0,99,0.00,,,0.00,Wunderground v.1.15,2013-01-14 05:44:00,
2013-01-14 00:50:00,39.5,39.2,29.98,SE,128,0.0,2.0,99,0.00,,,0.00,Wunderground v.1.15,2013-01-14 05:50:00,
2013-01-14 00:55:00,39.7,39.4,29.98,SE,141,0.0,2.0,99,0.00,,,0.00,Wunderground v.1.15,2013-01-14 05:55:00,
2013-01-14 01:00:00,39.7,39.4,29.99,SE,141,0.0,2.0,99,0.00,,,0.00,Wunderground v.1.15,2013-01-14 06:00:00,
2013-01-14 01:09:00,39.8,39.5,29.99,SE,141,0.0,2.0,99,0.00,,,0.00,Wunderground v.1.15,2013-01-14 06:09:00,
2013-01-14 01:15:00,39.8,39.5,29.98,SE,141,0.0,2.0,99,0.00,,,0.00,Wunderground v.1.15,2013-01-14 06:15:00,
2013-01-14 01:20:00,39.8,39.5,29.98,SE,141,0.0,2.0,99,0.00,,,0.00,Wunderground v.1.15,2013-01-14 06:20:00,
2013-01-14 01:25:00,39.7,39.4,29.98,SE,141,0.0,2.0,99,0.00,,,0.00,Wunderground v.1.15,2013-01-14 06:25:00,
2013-01-14 01:30:00,39.7,39.4,29.98,SE,141,0.0,2.0,99,0.00,,,0.00,Wunderground v.1.15,2013-01-14 06:30:00,
2013-01-14 01:40:00,39.7,39.4,29.98,SSE,163,1.0,1.0,99,0.00,,,0.00,Wunderground v.1.15,2013-01-14 06:40:00,
2013-01-14 01:45:00,39.7,39.4,29.98,SSE,163,0.0,2.0,99,0.00,,,0.00,Wunderground v.1.15,2013-01-14 06:45:00,
2013-01-14 01:50:00,39.7,39.4,29.98,ESE,113,1.0,2.0,99,0.00,,,0.00,Wunderground v.1.15,2013-01-14 06:50:00,
2013-01-14 01:55:00,39.8,39.5,29.98,ESE,121,1.0,2.0,99,0.00,,,0.00,Wunderground v.1.15,2013-01-14 06:55:00,
2013-01-14 02:00:00,39.9,39.6,29.98,SSE,159,0.0,2.0,99,0.00,,,0.00,Wunderground v.1.15,2013-01-14 07:00:00,
2013-01-14 02:10:00,39.9,39.6,29.99,SSE,153,0.0,2.0,99,0.00,,,0.00,Wunderground v.1.15,2013-01-14 07:10:00,
2013-01-14 02:15:00,40.0,39.7,30.00,SSE,154,0.0,2.0,99,0.00,,,0.00,Wunderground v.1.15,2013-01-14 07:15:00,
2013-01-14 02:20:00,40.0,39.7,30.00,SSE,154,0.0,2.0,99,0.00,,,0.00,Wunderground v.1.15,2013-01-14 07:20:00,
2013-01-14 02:25:00,40.0,39.7,30.00,South,171,0.0,2.0,99,0.00,,,0.00,Wunderground v.1.15,2013-01-14 07:25:00,
2013-01-14 02:30:00,40.0,39.7,30.00,SSE,162,0.0,2.0,99,0.00,,,0.00,Wunderground v.1.15,2013-01-14 07:30:00,
2013-01-14 02:35:00,40.0,39.7,29.99,SE,134,0.0,2.0,99,0.00,,,0.00,Wunderground v.1.15,2013-01-14 07:35:00,
2013-01-14 02:45:00,40.0,39.7,29.99,SSW,198,1.0,2.0,99,0.00,,,0.00,Wunderground v.1.15,2013-01-14 07:45:00,
2013-01-14 02:50:00,40.1,39.8,30.00,South,173,1.0,1.0,99,0.00,,,0.00,Wunderground v.1.15,2013-01-14 07:50:00,
2013-01-14 02:55:00,40.2,39.9,30.00,South,173,0.0,2.0,99,0.00,,,0.00,Wunderground v.1.15,2013-01-14 07:55:00,
2013-01-14 03:00:00,40.2,39.9,30.00,South,173,0.0,2.0,99,0.00,,,0.00,Wunderground v.1.15,2013-01-14 08:00:00,
2013-01-14 03:05:00,40.1,39.8,30.02,South,174,0.0,2.0,99,0.00,,,0.01,Wunderground v.1.15,2013-01-14 08:05:00,
2013-01-14 03:10:00,40.0,39.7,29.99,South,174,0.0,2.0,99,0.00,,,0.01,Wunderground v.1.15,2013-01-14 08:10:00,
2013-01-14 03:19:00,39.8,39.5,29.99,SW,229,0.0,2.0,99,0.04,,,0.02,Wunderground v.1.15,2013-01-14 08:19:00,
2013-01-14 03:25:00,39.8,39.5,29.98,NNW,343,0.0,2.0,99,0.04,,,0.02,Wunderground v.1.15,2013-01-14 08:25:00,
2013-01-14 03:30:00,39.8,39.5,29.97,NNW,343,0.0,2.0,99,0.07,,,0.03,Wunderground v.1.15,2013-01-14 08:30:00,
2013-01-14 03:39:00,39.7,39.4,29.96,SSE,153,1.0,2.0,99,0.04,,,0.03,Wunderground v.1.15,2013-01-14 08:39:00,
2013-01-14 03:44:00,39.8,39.5,29.96,ESE,115,1.0,2.0,99,0.00,,,0.03,Wunderground v.1.15,2013-01-14 08:44:00,
2013-01-14 03:49:00,39.9,39.6,29.95,SE,139,0.0,2.0,99,0.00,,,0.03,Wunderground v.1.15,2013-01-14 08:49:00,
2013-01-14 03:55:00,39.8,39.5,29.95,SSE,160,0.0,3.0,99,0.00,,,0.03,Wunderground v.1.15,2013-01-14 08:55:00,
2013-01-14 04:00:00,39.8,39.5,29.95,SSE,158,1.0,1.0,99,0.00,,,0.03,Wunderground v.1.15,2013-01-14 09:00:00,
2013-01-14 04:05:00,40.0,39.7,29.96,SSE,158,1.0,2.0,99,0.00,,,0.03,Wunderground v.1.15,2013-01-14 09:05:00,
2013-01-14 04:10:00,40.1,39.8,29.96,SSE,158,0.0,2.0,99,0.00,,,0.03,Wunderground v.1.15,2013-01-14 09:10:00,
2013-01-14 04:20:00,39.8,39.5,29.90,SE,124,1.0,1.0,99,0.00,,,0.03,Wunderground v.1.15,2013-01-14 09:20:00,
2013-01-14 04:25:00,39.7,39.4,29.89,SSE,166,2.0,2.0,99,0.00,,,0.03,Wunderground v.1.15,2013-01-14 09:25:00,
2013-01-14 04:30:00,39.7,39.4,29.88,ESE,109,2.0,2.0,99,0.00,,,0.03,Wunderground v.1.15,2013-01-14 09:30:00,
2013-01-14 04:40:00,40.5,40.2,29.92,SE,142,2.0,2.0,99,0.00,,,0.03,Wunderground v.1.15,2013-01-14 09:40:00,
2013-01-14 04:45:00,40.7,40.4,29.93,West,274,2.0,2.0,99,0.00,,,0.03,Wunderground v.1.15,2013-01-14 09:45:00,
2013-01-14 04:50:00,40.8,40.5,29.92,West,274,1.0,1.0,99,0.00,,,0.03,Wunderground v.1.15,2013-01-14 09:50:00,
2013-01-14 04:55:00,40.8,40.5,29.92,West,274,0.0,2.0,99,0.00,,,0.03,Wunderground v.1.15,2013-01-14 09:55:00,
2013-01-14 05:00:00,40.7,40.4,29.93,West,274,1.0,1.0,99,0.00,,,0.03,Wunderground v.1.15,2013-01-14 10:00:00,
2013-01-14 05:05:00,40.6,40.3,29.94,West,274,1.0,7.0,99,0.00,,,0.03,Wunderground v.1.15,2013-01-14 10:05:00,
2013-01-14 05:15:00,40.5,40.2,29.93,West,274,0.0,7.0,99,0.00,,,0.03,Wunderground v.1.15,2013-01-14 10:15:00,
2013-01-14 05:20:00,40.3,40.0,29.93,West,274,0.0,7.0,99,0.00,,,0.03,Wunderground v.1.15,2013-01-14 10:20:00,
2013-01-14 05:25:00,40.2,39.9,29.92,West,274,0.0,7.0,99,0.00,,,0.03,Wunderground v.1.15,2013-01-14 10:25:00,
2013-01-14 05:30:00,40.1,39.8,29.93,West,274,0.0,7.0,99,0.00,,,0.03,Wunderground v.1.15,2013-01-14 10:30:00,
2013-01-14 05:35:00,40.0,39.7,29.92,West,274,0.0,7.0,99,0.00,,,0.03,Wunderground v.1.15,2013-01-14 10:35:00,
2013-01-14 05:44:00,39.8,39.5,29.93,West,274,0.0,7.0,99,0.00,,,0.03,Wunderground v.1.15,2013-01-14 10:44:00,
2013-01-14 05:50:00,39.7,39.4,29.95,West,274,0.0,7.0,99,0.00,,,0.03,Wunderground v.1.15,2013-01-14 10:50:00,
2013-01-14 05:55:00,39.7,39.4,29.95,West,274,0.0,7.0,99,0.00,,,0.03,Wunderground v.1.15,2013-01-14 10:55:00,
2013-01-14 06:00:00,39.6,39.3,29.94,West,274,0.0,7.0,99,0.00,,,0.03,Wunderground v.1.15,2013-01-14 11:00:00,
2013-01-14 06:05:00,39.3,39.0,29.94,WSW,250,0.0,7.0,99,0.00,,,0.03,Wunderground v.1.15,2013-01-14 11:05:00,
2013-01-14 06:10:00,39.1,38.8,29.94,WSW,250,0.0,7.0,99,0.00,,,0.03,Wunderground v.1.15,2013-01-14 11:10:00,
2013-01-14 06:15:00,39.0,38.7,29.95,West,264,0.0,7.0,99,0.00,,,0.03,Wunderground v.1.15,2013-01-14 11:15:00,
2013-01-14 06:24:00,38.9,38.6,29.96,West,264,0.0,7.0,99,0.00,,,0.03,Wunderground v.1.15,2013-01-14 11:24:00,
2013-01-14 06:30:00,38.8,38.5,29.96,West,264,0.0,7.0,99,0.00,,,0.03,Wunderground v.1.15,2013-01-14 11:30:00,
2013-01-14 06:35:00,38.7,38.4,29.97,West,264,0.0,7.0,99,0.00,,,0.03,Wunderground v.1.15,2013-01-14 11:35:00,
2013-01-14 06:40:00,38.6,38.3,29.98,West,264,0.0,7.0,99,0.00,,,0.03,Wunderground v.1.15,2013-01-14 11:40:00,
2013-01-14 06:45:00,38.7,38.4,29.98,West,264,0.0,7.0,99,0.00,,,0.03,Wunderground v.1.15,2013-01-14 11:45:00,
2013-01-14 06:50:00,38.8,38.5,29.99,West,264,0.0,7.0,99,0.00,,,0.03,Wunderground v.1.15,2013-01-14 11:50:00,
2013-01-14 06:55:00,39.0,38.7,29.99,West,265,0.0,7.0,99,0.00,,,0.03,Wunderground v.1.15,2013-01-14 11:55:00,
2013-01-14 07:04:00,39.4,39.1,29.99,West,265,0.0,7.0,99,0.00,,,0.03,Wunderground v.1.15,2013-01-14 12:04:00,
2013-01-14 07:10:00,39.6,39.3,30.00,West,265,0.0,7.0,99,0.00,,,0.03,Wunderground v.1.15,2013-01-14 12:10:00,
2013-01-14 07:15:00,39.8,39.5,30.00,NE,51,0.0,7.0,99,0.00,,,0.03,Wunderground v.1.15,2013-01-14 12:15:00,
2013-01-14 07:20:00,39.7,39.4,30.02,North,351,0.0,7.0,99,0.00,,,0.03,Wunderground v.1.15,2013-01-14 12:20:00,
2013-01-14 07:25:00,40.0,39.7,30.02,NNW,340,1.0,7.0,99,0.00,,,0.03,Wunderground v.1.15,2013-01-14 12:25:00,
2013-01-14 07:34:00,41.5,41.2,30.02,NE,55,2.0,7.0,99,0.00,,,0.03,Wunderground v.1.15,2013-01-14 12:34:00,
2013-01-14 07:40:00,41.6,41.3,30.04,NNW,345,1.0,1.0,99,0.00,,,0.03,Wunderground v.1.15,2013-01-14 12:40:00,
2013-01-14 07:45:00,41.9,41.6,30.04,NNW,344,1.0,6.0,99,0.00,,,0.03,Wunderground v.1.15,2013-01-14 12:45:00,
2013-01-14 07:50:00,42.2,41.9,30.05,North,355,2.0,2.0,99,0.00,,,0.03,Wunderground v.1.15,2013-01-14 12:50:00,
2013-01-14 07:55:00,42.3,42.0,30.05,North,5,2.0,7.0,99,0.00,,,0.03,Wunderground v.1.15,2013-01-14 12:55:00,
2013-01-14 08:00:00,42.3,42.0,30.05,NNE,12,2.0,2.0,99,0.00,,,0.03,Wunderground v.1.15,2013-01-14 13:00:00,
2013-01-14 08:05:00,42.3,42.0,30.06,NNW,346,1.0,7.0,99,0.00,,,0.03,Wunderground v.1.15,2013-01-14 13:05:00,
2013-01-14 08:14:00,43.1,42.8,30.07,SW,225,1.0,7.0,99,0.00,,,0.03,Wunderground v.1.15,2013-01-14 13:14:00,
2013-01-14 08:20:00,43.5,43.2,30.07,West,279,0.0,7.0,99,0.00,,,0.03,Wunderground v.1.15,2013-01-14 13:20:00,
2013-01-14 08:25:00,43.7,43.4,30.07,WNW,296,0.0,7.0,99,0.00,,,0.03,Wunderground v.1.15,2013-01-14 13:25:00,
2013-01-14 08:30:00,43.7,43.4,30.08,WNW,296,0.0,7.0,99,0.00,,,0.03,Wunderground v.1.15,2013-01-14 13:30:00,
2013-01-14 08:35:00,43.6,43.3,30.08,WNW,296,0.0,7.0,99,0.00,,,0.03,Wunderground v.1.15,2013-01-14 13:35:00,
2013-01-14 08:40:00,43.7,43.4,30.08,WNW,296,0.0,7.0,99,0.00,,,0.03,Wunderground v.1.15,2013-01-14 13:40:00,
2013-01-14 08:45:00,44.3,44.0,30.08,WNW,291,1.0,7.0,99,0.00,,,0.03,Wunderground v.1.15,2013-01-14 13:45:00,
2013-01-14 08:54:00,44.7,44.4,30.08,West,277,2.0,7.0,99,0.00,,,0.03,Wunderground v.1.15,2013-01-14 13:54:00,
2013-01-14 08:59:00,44.9,44.6,30.08,West,274,2.0,2.0,99,0.00,,,0.03,Wunderground v.1.15,2013-01-14 13:59:00,
2013-01-14 09:05:00,45.1,44.8,30.08,West,274,2.0,7.0,99,0.00,,,0.03,Wunderground v.1.15,2013-01-14 14:05:00,
2013-01-14 09:10:00,45.2,44.9,30.08,WNW,294,2.0,2.0,99,0.00,,,0.03,Wunderground v.1.15,2013-01-14 14:10:00,
2013-01-14 09:15:00,45.5,45.2,30.09,WNW,298,2.0,7.0,99,0.00,,,0.03,Wunderground v.1.15,2013-01-14 14:15:00,
2013-01-14 09:20:00,45.8,45.5,30.10,WNW,285,3.0,3.0,99,0.00,,,0.03,Wunderground v.1.15,2013-01-14 14:20:00,
2013-01-14 09:29:00,45.6,45.3,30.09,NW,310,3.0,7.0,99,0.00,,,0.03,Wunderground v.1.15,2013-01-14 14:29:00,
2013-01-14 09:34:00,45.5,45.2,30.10,West,272,4.0,7.0,99,0.00,,,0.03,Wunderground v.1.15,2013-01-14 14:34:00,
2013-01-14 09:40:00,45.4,45.1,30.10,North,351,2.0,2.0,99,0.00,,,0.03,Wunderground v.1.15,2013-01-14 14:40:00,
2013-01-14 09:45:00,45.4,45.1,30.11,NNW,344,1.0,4.0,99,0.00,,,0.03,Wunderground v.1.15,2013-01-14 14:45:00,
2013-01-14 09:50:00,45.3,45.0,30.11,NNW,340,2.0,7.0,99,0.00,,,0.03,Wunderground v.1.15,2013-01-14 14:50:00,
2013-01-14 09:55:00,45.3,45.0,30.11,NNW,348,2.0,7.0,99,0.00,,,0.03,Wunderground v.1.15,2013-01-14 14:55:00,
2013-01-14 10:00:00,44.9,44.6,30.12,NE,54,1.0,7.0,99,0.00,,,0.03,Wunderground v.1.15,2013-01-14 15:00:00,
2013-01-14 10:09:00,44.0,43.7,30.13,North,350,1.0,7.0,99,0.00,,,0.03,Wunderground v.1.15,2013-01-14 15:09:00,
2013-01-14 10:14:00,43.6,43.3,30.13,North,355,2.0,7.0,99,0.00,,,0.03,Wunderground v.1.15,2013-01-14 15:14:00,
2013-01-14 10:20:00,43.1,42.8,30.13,North,11,2.0,7.0,99,0.00,,,0.03,Wunderground v.1.15,2013-01-14 15:20:00,
2013-01-14 10:25:00,42.6,42.1,30.13,NW,312,4.0,7.0,98,0.00,,,0.03,Wunderground v.1.15,2013-01-14 15:25:00,
2013-01-14 10:30:00,42.4,41.9,30.14,North,355,4.0,7.0,98,0.00,,,0.03,Wunderground v.1.15,2013-01-14 15:30:00,
2013-01-14 10:40:00,42.1,41.6,30.14,WNW,290,4.0,7.0,98,0.00,,,0.03,Wunderground v.1.15,2013-01-14 15:40:00,
2013-01-14 10:45:00,42.1,41.3,30.14,WNW,290,5.0,7.0,97,0.00,,,0.03,Wunderground v.1.15,2013-01-14 15:45:00,
2013-01-14 10:50:00,42.2,41.4,30.15,NW,316,5.0,5.0,97,0.00,,,0.03,Wunderground v.1.15,2013-01-14 15:50:00,
2013-01-14 10:55:00,42.2,41.4,30.15,NNW,342,3.0,7.0,97,0.00,,,0.03,Wunderground v.1.15,2013-01-14 15:55:00,
2013-01-14 11:00:00,42.3,41.2,30.15,NNW,340,2.0,2.0,96,0.00,,,0.03,Wunderground v.1.15,2013-01-14 16:00:00,
2013-01-14 11:05:00,42.3,41.2,30.15,NW,320,1.0,7.0,96,0.00,,,0.03,Wunderground v.1.15,2013-01-14 16:05:00,
2013-01-14 11:14:00,42.5,41.2,30.16,WNW,302,2.0,7.0,95,0.00,,,0.03,Wunderground v.1.15,2013-01-14 16:14:00,
2013-01-14 11:19:00,42.6,41.3,30.16,NW,322,1.0,1.0,95,0.00,,,0.03,Wunderground v.1.15,2013-01-14 16:19:00,
2013-01-14 11:25:00,42.7,41.1,30.16,NW,322,1.0,7.0,94,0.00,,,0.03,Wunderground v.1.15,2013-01-14 16:25:00,
2013-01-14 11:30:00,42.8,40.9,30.16,NW,325,1.0,7.0,93,0.00,,,0.03,Wunderground v.1.15,2013-01-14 16:30:00,
2013-01-14 11:35:00,42.9,41.0,30.17,NNW,335,2.0,7.0,93,0.00,,,0.03,Wunderground v.1.15,2013-01-14 16:35:00,
2013-01-14 11:40:00,43.1,40.7,30.17,NNW,329,3.0,3.0,91,0.00,,,0.03,Wunderground v.1.15,2013-01-14 16:40:00,
2013-01-14 11:45:00,43.2,40.8,30.17,NW,320,2.0,7.0,91,0.00,,,0.03,Wunderground v.1.15,2013-01-14 16:45:00,
2013-01-14 11:54:00,43.9,40.6,30.17,WNW,302,3.0,7.0,88,0.00,,,0.03,Wunderground v.1.15,2013-01-14 16:54:00,
2013-01-14 11:59:00,44.0,40.1,30.17,WNW,285,3.0,7.0,86,0.00,,,0.03,Wunderground v.1.15,2013-01-14 16:59:00,
2013-01-14 12:05:00,44.0,39.8,30.17,NNW,337,4.0,7.0,85,0.00,,,0.03,Wunderground v.1.15,2013-01-14 17:05:00,
2013-01-14 12:10:00,43.9,39.4,30.17,NNW,344,5.0,5.0,84,0.00,,,0.03,Wunderground v.1.15,2013-01-14 17:10:00,
2013-01-14 12:15:00,43.9,39.7,30.17,NNW,338,4.0,7.0,85,0.00,,,0.03,Wunderground v.1.15,2013-01-14 17:15:00,
2013-01-14 12:25:00,43.7,38.9,30.18,West,269,4.0,8.0,83,0.00,,,0.03,Wunderground v.1.15,2013-01-14 17:25:00,
2013-01-14 12:35:00,43.3,38.2,30.18,West,265,6.0,10.0,82,0.00,,,0.03,Wunderground v.1.15,2013-01-14 17:35:00,
2013-01-14 12:40:00,43.3,38.2,30.18,NW,321,6.0,6.0,82,0.00,,,0.03,Wunderground v.1.15,2013-01-14 17:40:00,
2013-01-14 12:45:00,43.7,38.6,30.18,WNW,296,5.0,7.0,82,0.00,,,0.03,Wunderground v.1.15,2013-01-14 17:45:00,
2013-01-14 12:50:00,44.7,39.2,30.18,NW,305,5.0,13.0,81,0.00,,,0.03,Wunderground v.1.15,2013-01-14 17:50:00,
2013-01-14 12:59:00,44.6,37.2,30.18,WNW,284,8.0,8.0,75,0.00,,,0.03,Wunderground v.1.15,2013-01-14 17:59:00,
2013-01-14 13:04:00,44.3,37.2,30.19,WNW,291,7.0,11.0,76,0.00,,,0.03,Wunderground v.1.15,2013-01-14 18:04:00,
2013-01-14 13:10:00,44.0,36.2,30.19,NW,317,7.0,11.0,74,0.00,,,0.03,Wunderground v.1.15,2013-01-14 18:10:00,
2013-01-14 13:15:00,43.9,36.1,30.18,NNW,340,8.0,11.0,74,0.00,,,0.03,Wunderground v.1.15,2013-01-14 18:15:00,
2013-01-14 13:20:00,43.6,35.2,30.18,NW,310,10.0,14.0,72,0.00,,,0.03,Wunderground v.1.15,2013-01-14 18:20:00,
2013-01-14 13:25:00,43.7,36.0,30.18,West,281,10.0,14.0,74,0.00,,,0.03,Wunderground v.1.15,2013-01-14 18:25:00,
2013-01-14 13:30:00,44.0,36.6,30.19,NW,306,7.0,11.0,75,0.00,,,0.03,Wunderground v.1.15,2013-01-14 18:30:00,
2013-01-14 13:39:00,43.3,34.9,30.20,NW,316,8.0,8.0,72,0.00,,,0.03,Wunderground v.1.15,2013-01-14 18:39:00,
2013-01-14 13:44:00,42.8,34.4,30.20,West,271,8.0,12.0,72,0.00,,,0.03,Wunderground v.1.15,2013-01-14 18:44:00,
2013-01-14 13:50:00,42.7,34.3,30.20,WNW,284,9.0,9.0,72,0.00,,,0.03,Wunderground v.1.15,2013-01-14 18:50:00,
2013-01-14 13:55:00,43.3,34.9,30.20,NNW,348,10.0,13.0,72,0.00,,,0.03,Wunderground v.1.15,2013-01-14 18:55:00,
2013-01-14 14:00:00,43.8,34.6,30.20,NW,311,8.0,11.0,70,0.00,,,0.03,Wunderground v.1.15,2013-01-14 19:00:00,
2013-01-14 14:05:00,44.0,34.5,30.20,WNW,296,8.0,11.0,69,0.00,,,0.03,Wunderground v.1.15,2013-01-14 19:05:00,
2013-01-14 14:14:00,44.4,34.9,30.21,NNW,330,6.0,12.0,69,0.00,,,0.03,Wunderground v.1.15,2013-01-14 19:14:00,
2013-01-14 14:19:00,44.2,33.2,30.21,West,277,6.0,11.0,65,0.00,,,0.03,Wunderground v.1.15,2013-01-14 19:19:00,
2013-01-14 14:25:00,43.6,33.4,30.21,WNW,296,6.0,11.0,67,0.00,,,0.03,Wunderground v.1.15,2013-01-14 19:25:00,
2013-01-14 14:30:00,43.3,33.4,30.22,NW,318,6.0,6.0,68,0.00,,,0.03,Wunderground v.1.15,2013-01-14 19:30:00,
2013-01-14 14:35:00,43.3,33.4,30.22,NW,304,7.0,12.0,68,0.00,,,0.03,Wunderground v.1.15,2013-01-14 19:35:00,
2013-01-14 14:40:00,43.0,32.8,30.22,WNW,302,8.0,11.0,67,0.00,,,0.03,Wunderground v.1.15,2013-01-14 19:40:00,
2013-01-14 14:49:00,42.4,32.6,30.22,WNW,302,8.0,8.0,68,0.00,,,0.03,Wunderground v.1.15,2013-01-14 19:49:00,
2013-01-14 14:55:00,42.3,32.1,30.23,WNW,299,7.0,11.0,67,0.00,,,0.03,Wunderground v.1.15,2013-01-14 19:55:00,
2013-01-14 15:00:00,42.2,32.4,30.23,WNW,294,6.0,6.0,68,0.00,,,0.03,Wunderground v.1.15,2013-01-14 20:00:00,
2013-01-14 15:05:00,42.3,32.5,30.23,NNW,343,6.0,11.0,68,0.00,,,0.03,Wunderground v.1.15,2013-01-14 20:05:00,
2013-01-14 15:10:00,42.1,32.7,30.23,NNW,344,5.0,11.0,69,0.00,,,0.03,Wunderground v.1.15,2013-01-14 20:10:00,
2013-01-14 15:15:00,41.6,32.2,30.23,NW,313,5.0,11.0,69,0.00,,,0.03,Wunderground v.1.15,2013-01-14 20:15:00,
2013-01-14 15:24:00,40.8,31.8,30.23,NNW,348,4.0,11.0,70,0.00,,,0.03,Wunderground v.1.15,2013-01-14 20:24:00,
2013-01-14 15:29:00,40.5,31.5,30.24,NW,323,3.0,11.0,70,0.00,,,0.03,Wunderground v.1.15,2013-01-14 20:29:00,
2013-01-14 15:35:00,40.2,31.2,30.24,WNW,301,4.0,11.0,70,0.00,,,0.03,Wunderground v.1.15,2013-01-14 20:35:00,
2013-01-14 15:40:00,39.9,30.9,30.24,NNW,331,5.0,5.0,70,0.00,,,0.03,Wunderground v.1.15,2013-01-14 20:40:00,
2013-01-14 15:45:00,39.6,31.0,30.24,NNW,336,5.0,6.0,71,0.00,,,0.03,Wunderground v.1.15,2013-01-14 20:45:00,
2013-01-14 15:50:00,39.2,30.2,30.24,NNW,346,4.0,11.0,70,0.00,,,0.03,Wunderground v.1.15,2013-01-14 20:50:00,
2013-01-14 16:00:00,38.5,29.9,30.25,North,5,4.0,11.0,71,0.00,,,0.03,Wunderground v.1.15,2013-01-14 21:00:00,
2013-01-14 16:09:00,37.8,29.2,30.25,North,5,5.0,11.0,71,0.00,,,0.03,Wunderground v.1.15,2013-01-14 21:09:00,
2013-01-14 16:15:00,37.4,28.9,30.25,NNW,340,6.0,11.0,71,0.00,,,0.03,Wunderground v.1.15,2013-01-14 21:15:00,
2013-01-14 16:20:00,37.2,28.3,30.25,NW,316,6.0,6.0,70,0.00,,,0.03,Wunderground v.1.15,2013-01-14 21:20:00,
2013-01-14 16:25:00,36.9,28.4,30.25,NNW,344,5.0,11.0,71,0.00,,,0.03,Wunderground v.1.15,2013-01-14 21:25:00,
2013-01-14 16:30:00,36.6,28.4,30.25,WNW,302,5.0,11.0,72,0.00,,,0.03,Wunderground v.1.15,2013-01-14 21:30:00,
2013-01-14 16:35:00,36.2,28.0,30.25,NW,315,5.0,11.0,72,0.00,,,0.03,Wunderground v.1.15,2013-01-14 21:35:00,
2013-01-14 16:44:00,35.6,27.5,30.24,NW,313,4.0,6.0,72,0.00,,,0.03,Wunderground v.1.15,2013-01-14 21:44:00,
2013-01-14 16:50:00,35.4,27.3,30.24,NW,321,5.0,11.0,72,0.00,,,0.03,Wunderground v.1.15,2013-01-14 21:50:00,
2013-01-14 16:55:00,35.2,27.1,30.24,North,351,6.0,11.0,72,0.00,,,0.03,Wunderground v.1.15,2013-01-14 21:55:00,
2013-01-14 17:00:00,35.0,27.2,30.24,NNW,344,4.0,11.0,73,0.00,,,0.03,Wunderground v.1.15,2013-01-14 22:00:00,
2013-01-14 17:05:00,34.7,27.3,30.24,North,11,3.0,11.0,74,0.00,,,0.03,Wunderground v.1.15,2013-01-14 22:05:00,
2013-01-14 17:10:00,34.5,27.1,30.23,NW,320,3.0,11.0,74,0.00,,,0.03,Wunderground v.1.15,2013-01-14 22:10:00,
2013-01-14 17:15:00,34.3,27.2,30.24,NW,317,3.0,11.0,75,0.00,,,0.03,Wunderground v.1.15,2013-01-14 22:15:00,
2013-01-14 17:24:00,33.8,27.4,30.23,NNW,338,3.0,11.0,77,0.00,,,0.03,Wunderground v.1.15,2013-01-14 22:24:00,
2013-01-14 17:30:00,33.6,27.2,30.25,WNW,282,5.0,11.0,77,0.00,,,0.03,Wunderground v.1.15,2013-01-14 22:30:00,
2013-01-14 17:35:00,33.6,27.2,30.24,NNW,341,5.0,11.0,77,0.00,,,0.03,Wunderground v.1.15,2013-01-14 22:35:00,
2013-01-14 17:40:00,33.4,27.0,30.26,NW,317,4.0,4.0,77,0.00,,,0.03,Wunderground v.1.15,2013-01-14 22:40:00,
2013-01-14 17:45:00,33.3,26.9,30.25,West,281,3.0,6.0,77,0.00,,,0.03,Wunderground v.1.15,2013-01-14 22:45:00,
2013-01-14 17:50:00,33.3,26.5,30.25,WNW,303,4.0,4.0,76,0.00,,,0.03,Wunderground v.1.15,2013-01-14 22:50:00,
2013-01-14 17:59:00,33.1,26.0,30.25,NNE,17,5.0,11.0,75,0.00,,,0.03,Wunderground v.1.15,2013-01-14 22:59:00,
2013-01-14 18:05:00,33.1,26.0,30.26,WNW,298,6.0,11.0,75,0.00,,,0.03,Wunderground v.1.15,2013-01-14 23:05:00,
2013-01-14 18:10:00,33.1,26.0,30.27,West,281,6.0,6.0,75,0.00,,,0.03,Wunderground v.1.15,2013-01-14 23:10:00,
2013-01-14 18:15:00,33.2,26.1,30.27,WNW,282,6.0,8.0,75,0.00,,,0.03,Wunderground v.1.15,2013-01-14 23:15:00,
2013-01-14 18:20:00,33.2,25.8,30.28,NNW,331,6.0,6.0,74,0.00,,,0.03,Wunderground v.1.15,2013-01-14 23:20:00,
2013-01-14 18:25:00,33.2,26.1,30.29,WNW,297,6.0,11.0,75,0.00,,,0.03,Wunderground v.1.15,2013-01-14 23:25:00,
2013-01-14 18:30:00,33.2,25.8,30.30,WNW,284,8.0,11.0,74,0.00,,,0.03,Wunderground v.1.15,2013-01-14 23:30:00,
2013-01-14 18:39:00,33.3,25.6,30.31,WNW,296,9.0,11.0,73,0.00,,,0.03,Wunderground v.1.15,2013-01-14 23:39:00,
2013-01-14 18:45:00,33.3,25.6,30.30,NW,317,9.0,11.0,73,0.00,,,0.03,Wunderground v.1.15,2013-01-14 23:45:00,
2013-01-14 18:50:00,33.4,25.7,30.30,NW,311,10.0,10.0,73,0.00,,,0.03,Wunderground v.1.15,2013-01-14 23:50:00,
2013-01-14 18:55:00,33.3,25.6,30.30,WNW,292,9.0,11.0,73,0.00,,,0.03,Wunderground v.1.15,2013-01-14 23:55:00,
2013-01-14 19:00:00,33.4,25.7,30.31,NW,317,8.0,8.0,73,0.00,,,0.03,Wunderground v.1.15,2013-01-15 00:00:00,
2013-01-14 19:05:00,33.3,25.6,30.31,WNW,285,7.0,10.0,73,0.00,,,0.03,Wunderground v.1.15,2013-01-15 00:05:00,
2013-01-14 19:10:00,33.2,25.1,30.30,West,277,8.0,8.0,72,0.00,,,0.03,Wunderground v.1.15,2013-01-15 00:10:00,
2013-01-14 19:19:00,33.1,25.4,30.31,West,278,7.0,12.0,73,0.00,,,0.03,Wunderground v.1.15,2013-01-15 00:19:00,
2013-01-14 19:24:00,33.1,25.4,30.31,West,278,8.0,12.0,73,0.00,,,0.03,Wunderground v.1.15,2013-01-15 00:24:00,
2013-01-14 19:30:00,33.0,25.3,30.32,WNW,298,7.0,11.0,73,0.00,,,0.03,Wunderground v.1.15,2013-01-15 00:30:00,
2013-01-14 19:35:00,33.0,25.6,30.33,West,266,8.0,11.0,74,0.00,,,0.03,Wunderground v.1.15,2013-01-15 00:35:00,
2013-01-14 19:40:00,32.9,25.5,30.31,WNW,294,8.0,11.0,74,0.00,,,0.03,Wunderground v.1.15,2013-01-15 00:40:00,
2013-01-14 19:45:00,32.9,25.5,30.31,NW,308,7.0,11.0,74,0.00,,,0.03,Wunderground v.1.15,2013-01-15 00:45:00,
2013-01-14 19:54:00,32.7,25.3,30.31,WSW,255,5.0,11.0,74,0.00,,,0.03,Wunderground v.1.15,2013-01-15 00:54:00,
2013-01-14 19:59:00,32.7,25.3,30.32,WNW,284,5.0,5.0,74,0.00,,,0.03,Wunderground v.1.15,2013-01-15 00:59:00,
2013-01-14 20:04:00,32.6,25.2,30.32,West,269,6.0,7.0,74,0.00,,,0.03,Wunderground v.1.15,2013-01-15 01:04:00,
2013-01-14 20:10:00,32.5,25.1,30.32,West,279,6.0,6.0,74,0.00,,,0.03,Wunderground v.1.15,2013-01-15 01:10:00,
2013-01-14 20:15:00,32.5,24.8,30.32,WNW,283,7.0,8.0,73,0.00,,,0.03,Wunderground v.1.15,2013-01-15 01:15:00,
2013-01-14 20:20:00,32.6,24.9,30.32,WSW,257,8.0,8.0,73,0.00,,,0.03,Wunderground v.1.15,2013-01-15 01:20:00,
2013-01-14 20:29:00,32.4,24.7,30.31,WNW,293,6.0,11.0,73,0.00,,,0.03,Wunderground v.1.15,2013-01-15 01:29:00,
2013-01-14 20:34:00,32.4,26.3,30.31,WNW,290,5.0,11.0,78,0.00,,,0.03,Wunderground v.1.15,2013-01-15 01:34:00,
2013-01-14 20:40:00,32.4,24.7,30.32,NW,304,5.0,11.0,73,0.00,,,0.03,Wunderground v.1.15,2013-01-15 01:40:00,
2013-01-14 20:45:00,32.4,24.7,30.32,West,264,6.0,11.0,73,0.00,,,0.03,Wunderground v.1.15,2013-01-15 01:45:00,
2013-01-14 20:50:00,32.4,24.4,30.31,WNW,287,6.0,6.0,72,0.00,,,0.03,Wunderground v.1.15,2013-01-15 01:50:00,
2013-01-14 20:55:00,32.4,24.7,30.31,WNW,298,5.0,11.0,73,0.00,,,0.03,Wunderground v.1.15,2013-01-15 01:55:00,
2013-01-14 21:04:00,32.3,24.6,30.31,West,279,4.0,11.0,73,0.00,,,0.03,Wunderground v.1.15,2013-01-15 02:04:00,
2013-01-14 21:09:00,32.3,24.9,30.31,West,280,4.0,4.0,74,0.00,,,0.03,Wunderground v.1.15,2013-01-15 02:09:00,
2013-01-14 21:14:00,32.3,24.9,30.31,West,271,4.0,11.0,74,0.00,,,0.03,Wunderground v.1.15,2013-01-15 02:14:00,
2013-01-14 21:20:00,32.3,24.9,30.30,WNW,294,3.0,3.0,74,0.00,,,0.03,Wunderground v.1.15,2013-01-15 02:20:00,
2013-01-14 21:25:00,32.2,25.2,30.30,NW,306,2.0,11.0,75,0.00,,,0.03,Wunderground v.1.15,2013-01-15 02:25:00,
2013-01-14 21:30:00,32.1,25.1,30.31,WNW,294,2.0,11.0,75,0.00,,,0.03,Wunderground v.1.15,2013-01-15 02:30:00,
2013-01-14 21:35:00,32.0,25.0,30.30,West,278,2.0,11.0,75,0.00,,,0.03,Wunderground v.1.15,2013-01-15 02:35:00,
2013-01-14 21:44:00,32.0,25.0,30.30,WNW,286,3.0,11.0,75,0.00,,,0.03,Wunderground v.1.15,2013-01-15 02:44:00,
2013-01-14 21:49:00,32.0,25.0,30.30,WNW,300,5.0,11.0,75,0.00,,,0.03,Wunderground v.1.15,2013-01-15 02:49:00,
2013-01-14 21:55:00,32.0,25.0,30.31,West,279,5.0,11.0,75,0.00,,,0.03,Wunderground v.1.15,2013-01-15 02:55:00,
2013-01-14 22:00:00,32.0,25.0,30.31,West,261,4.0,4.0,75,0.00,,,0.03,Wunderground v.1.15,2013-01-15 03:00:00,
2013-01-14 22:05:00,32.0,25.0,30.31,WNW,290,5.0,5.0,75,0.00,,,0.03,Wunderground v.1.15,2013-01-15 03:05:00,
2013-01-14 22:10:00,32.0,25.3,30.31,West,271,5.0,11.0,76,0.00,,,0.03,Wunderground v.1.15,2013-01-15 03:10:00,
2013-01-14 22:15:00,31.9,25.2,30.33,West,259,4.0,11.0,76,0.00,,,0.03,Wunderground v.1.15,2013-01-15 03:15:00,
2013-01-14 22:20:00,32.0,25.3,30.33,WSW,254,3.0,11.0,76,0.00,,,0.03,Wunderground v.1.15,2013-01-15 03:20:00,
2013-01-14 22:29:00,32.0,25.6,30.33,WSW,253,3.0,11.0,77,0.00,,,0.03,Wunderground v.1.15,2013-01-15 03:29:00,
2013-01-14 22:35:00,32.0,25.6,30.33,West,269,3.0,11.0,77,0.00,,,0.03,Wunderground v.1.15,2013-01-15 03:35:00,
2013-01-14 22:40:00,32.0,25.3,30.34,West,277,3.0,3.0,76,0.00,,,0.03,Wunderground v.1.15,2013-01-15 03:40:00,
2013-01-14 22:45:00,32.0,25.3,30.34,West,271,3.0,11.0,76,0.00,,,0.03,Wunderground v.1.15,2013-01-15 03:45:00,
2013-01-14 22:50:00,32.0,25.3,30.34,West,271,2.0,11.0,76,0.00,,,0.03,Wunderground v.1.15,2013-01-15 03:50:00,
2013-01-14 22:55:00,32.0,25.6,30.34,West,264,2.0,11.0,77,0.00,,,0.03,Wunderground v.1.15,2013-01-15 03:55:00,
2013-01-14 23:00:00,32.0,25.3,30.34,West,269,3.0,3.0,76,0.00,,,0.03,Wunderground v.1.15,2013-01-15 04:00:00,
2013-01-14 23:09:00,32.0,25.6,30.34,WNW,288,3.0,11.0,77,0.00,,,0.03,Wunderground v.1.15,2013-01-15 04:09:00,
2013-01-14 23:15:00,31.9,25.2,30.35,WNW,290,3.0,11.0,76,0.00,,,0.03,Wunderground v.1.15,2013-01-15 04:15:00,
2013-01-14 23:20:00,31.9,25.2,30.35,NW,318,5.0,11.0,76,0.00,,,0.03,Wunderground v.1.15,2013-01-15 04:20:00,
2013-01-14 23:25:00,31.9,25.5,30.35,West,275,5.0,11.0,77,0.00,,,0.03,Wunderground v.1.15,2013-01-15 04:25:00,
2013-01-14 23:35:00,31.9,25.5,30.34,WNW,296,3.0,11.0,77,0.00,,,0.03,Wunderground v.1.15,2013-01-15 04:35:00,
2013-01-14 23:44:00,31.8,25.4,30.33,NNW,329,2.0,5.0,77,0.00,,,0.03,Wunderground v.1.15,2013-01-15 04:44:00,
2013-01-14 23:50:00,31.8,25.1,30.33,WNW,298,1.0,11.0,76,0.00,,,0.03,Wunderground v.1.15,2013-01-15 04:50:00,
2013-01-14 23:55:00,31.8,25.1,30.34,WNW,292,2.0,11.0,76,0.00,,,0.03,Wunderground v.1.15,2013-01-15 04:55:00,